Time;durP1;ratioP1;P1;durP2;ratioP2;P2;SDS_P1;SDS_P2;PMS_P1;PMS_P2;Temp;Humidity;BMP_temperature;BMP_pressure;BME280_temperature;BME280_humidity;BME280_pressure;Samples;Min_cycle;Max_cycle;Signal;HPM_P1;HPM_P2
2021/08/26 00:00:57;;;;;;;16.20;12.43;;;14.20;99.90;;;;;;5107413;28;20464;-66
2021/08/26 00:06:14;;;;;;;15.77;13.30;;;14.10;99.90;;;;;;5098725;28;20442;-67
2021/08/26 00:08:42;;;;;;;14.80;12.20;;;14.20;99.90;;;;;;5098850;28;20474;-68
2021/08/26 00:11:09;;;;;;;13.33;11.93;;;14.10;99.90;;;;;;5108765;28;20487;-67
2021/08/26 00:13:38;;;;;;;15.33;12.47;;;14.20;99.90;;;;;;5109092;28;20522;-66
2021/08/26 00:16:05;;;;;;;14.20;12.70;;;14.20;99.90;;;;;;5109135;28;20449;-67
2021/08/26 00:18:32;;;;;;;19.10;13.40;;;14.00;99.90;;;;;;5108786;28;20537;-67
2021/08/26 00:21:00;;;;;;;16.07;12.77;;;13.90;99.90;;;;;;5101056;28;20446;-67
2021/08/26 00:23:27;;;;;;;18.70;13.63;;;13.90;99.90;;;;;;5101352;28;20494;-67
2021/08/26 00:25:55;;;;;;;18.67;15.00;;;13.80;99.90;;;;;;5089932;28;20511;-67
2021/08/26 00:28:22;;;;;;;15.90;14.20;;;13.70;99.90;;;;;;5090483;28;20452;-68
2021/08/26 00:30:49;;;;;;;17.90;15.10;;;13.70;99.90;;;;;;5089380;28;20453;-67
2021/08/26 00:33:17;;;;;;;16.60;14.40;;;13.60;99.90;;;;;;5090660;28;20464;-67
2021/08/26 00:35:44;;;;;;;17.23;14.60;;;13.60;99.90;;;;;;5089691;28;20450;-67
2021/08/26 00:38:11;;;;;;;23.97;15.73;;;13.60;99.90;;;;;;5090238;28;20442;-66
2021/08/26 00:40:38;;;;;;;17.80;14.43;;;13.50;99.90;;;;;;5089721;28;20484;-67
2021/08/26 00:43:06;;;;;;;16.00;13.80;;;13.40;99.90;;;;;;5090616;28;20468;-66
2021/08/26 00:45:34;;;;;;;16.90;13.90;;;13.30;99.90;;;;;;5089758;28;20478;-66
2021/08/26 00:48:02;;;;;;;16.60;14.63;;;13.20;99.90;;;;;;5090082;28;20525;-67
2021/08/26 00:50:29;;;;;;;15.80;13.80;;;13.20;99.90;;;;;;5089706;28;20450;-66
2021/08/26 00:52:56;;;;;;;17.43;15.50;;;13.10;99.90;;;;;;5090008;28;20508;-67
2021/08/26 00:55:23;;;;;;;16.90;15.20;;;13.10;99.90;;;;;;5089934;28;20442;-66
2021/08/26 00:57:50;;;;;;;16.60;13.47;;;13.00;99.90;;;;;;5089974;28;20532;-67
2021/08/26 01:00:19;;;;;;;15.03;13.13;;;13.00;99.90;;;;;;5088919;28;20486;-67
2021/08/26 01:03:01;;;;;;;16.90;13.83;;;13.00;99.90;;;;;;5090301;28;20457;-66
2021/08/26 01:05:34;;;;;;;20.13;15.50;;;12.90;99.90;;;;;;5089958;28;20450;-66
2021/08/26 01:08:07;;;;;;;18.83;14.30;;;12.90;99.90;;;;;;5090350;28;20430;-66
2021/08/26 01:10:36;;;;;;;20.63;15.60;;;12.90;99.90;;;;;;5089268;28;20442;-67
2021/08/26 01:13:03;;;;;;;24.23;15.70;;;12.90;99.90;;;;;;5089907;28;20500;-66
2021/08/26 01:15:31;;;;;;;17.47;15.63;;;12.90;99.90;;;;;;5089683;28;20442;-66
2021/08/26 01:17:58;;;;;;;17.43;15.53;;;12.90;99.90;;;;;;5089798;28;20442;-67
2021/08/26 01:20:25;;;;;;;16.40;13.63;;;12.80;99.90;;;;;;5088864;28;20478;-66
2021/08/26 01:22:52;;;;;;;17.40;15.47;;;12.90;99.90;;;;;;5089508;28;21103;-67
2021/08/26 01:25:22;;;;;;;18.50;16.10;;;12.90;99.90;;;;;;5089646;28;20446;-67
2021/08/26 01:27:54;;;;;;;18.67;15.47;;;12.90;99.90;;;;;;5089936;28;20551;-67
2021/08/26 01:30:23;;;;;;;17.00;15.20;;;12.80;99.90;;;;;;5088667;28;20979;-67
2021/08/26 01:32:53;;;;;;;17.40;15.00;;;12.80;99.90;;;;;;5089721;28;20843;-66
2021/08/26 01:35:21;;;;;;;19.80;14.87;;;12.80;99.90;;;;;;5089782;28;20517;-67
2021/08/26 01:37:48;;;;;;;18.07;14.90;;;12.80;99.90;;;;;;5089907;28;21012;-66
2021/08/26 01:40:15;;;;;;;17.23;15.47;;;12.80;99.90;;;;;;5088784;28;21007;-67
2021/08/26 01:42:42;;;;;;;16.90;15.07;;;12.70;99.90;;;;;;5090732;28;20544;-66
2021/08/26 01:45:11;;;;;;;18.50;16.30;;;12.70;99.90;;;;;;5093349;28;20441;-67
2021/08/26 01:47:39;;;;;;;20.43;16.13;;;12.80;99.90;;;;;;5093632;28;21054;-66
2021/08/26 01:50:06;;;;;;;21.00;15.70;;;12.80;99.90;;;;;;5092864;28;20997;-66
2021/08/26 01:52:33;;;;;;;15.50;13.73;;;12.80;99.90;;;;;;5093222;28;20461;-67
2021/08/26 01:55:03;;;;;;;20.53;16.30;;;12.80;99.90;;;;;;5093233;28;20995;-68
2021/08/26 01:57:32;;;;;;;19.70;16.10;;;12.80;99.90;;;;;;5093788;28;20537;-66
2021/08/26 02:00:00;;;;;;;18.37;15.10;;;12.70;99.90;;;;;;5092760;28;20991;-65
2021/08/26 02:02:28;;;;;;;18.47;14.47;;;12.70;99.90;;;;;;5093907;28;20472;-66
2021/08/26 02:04:55;;;;;;;14.80;13.23;;;12.70;99.90;;;;;;5093087;28;20466;-66
2021/08/26 02:07:22;;;;;;;17.13;15.23;;;12.70;99.90;;;;;;5093622;28;20567;-66
2021/08/26 02:09:48;;;;;;;16.67;14.83;;;12.50;99.90;;;;;;5092902;28;20445;-66
2021/08/26 02:12:15;;;;;;;21.73;17.70;;;12.50;99.90;;;;;;5092297;28;20468;-66
2021/08/26 02:14:42;;;;;;;18.07;14.80;;;12.50;99.90;;;;;;5092937;28;20450;-66
2021/08/26 02:17:10;;;;;;;19.67;16.20;;;12.40;99.90;;;;;;5093423;28;20482;-65
2021/08/26 02:19:38;;;;;;;19.13;13.97;;;12.40;99.90;;;;;;5092031;28;20508;-66
2021/08/26 02:22:05;;;;;;;20.10;15.33;;;12.30;99.90;;;;;;5093349;28;20842;-66
2021/08/26 02:24:32;;;;;;;18.87;16.50;;;12.20;99.90;;;;;;5092741;28;20456;-65
2021/08/26 02:26:59;;;;;;;17.93;14.10;;;12.10;99.90;;;;;;5092882;28;20449;-66
2021/08/26 02:29:27;;;;;;;15.23;13.50;;;12.10;99.90;;;;;;5091960;28;20442;-66
2021/08/26 02:31:54;;;;;;;18.27;13.70;;;12.10;99.90;;;;;;5093065;28;20480;-66
2021/08/26 02:34:20;;;;;;;17.20;14.87;;;12.20;99.90;;;;;;5092563;28;20449;-67
2021/08/26 02:36:49;;;;;;;16.37;14.60;;;12.20;99.90;;;;;;5092603;28;20450;-66
2021/08/26 02:39:16;;;;;;;18.13;14.70;;;12.20;99.90;;;;;;5091914;28;20438;-66
2021/08/26 02:41:42;;;;;;;15.73;13.80;;;12.30;99.90;;;;;;5092591;28;20572;-66
2021/08/26 02:44:09;;;;;;;18.30;14.37;;;12.40;99.90;;;;;;5092496;28;20537;-66
2021/08/26 02:46:36;;;;;;;20.30;14.80;;;12.40;99.90;;;;;;5091956;28;20456;-65
2021/08/26 02:49:04;;;;;;;17.77;14.80;;;12.40;99.90;;;;;;5091930;28;20440;-66
2021/08/26 02:51:30;;;;;;;18.53;13.07;;;12.50;99.90;;;;;;5092402;28;20470;-66
2021/08/26 02:53:59;;;;;;;16.33;14.13;;;12.50;99.90;;;;;;5092550;28;20450;-66
2021/08/26 02:56:26;;;;;;;19.57;17.10;;;12.70;99.90;;;;;;5091794;28;20450;-67
2021/08/26 02:58:53;;;;;;;15.00;13.30;;;12.70;99.90;;;;;;5091860;28;20448;-66
2021/08/26 03:01:19;;;;;;;18.13;13.97;;;12.80;99.90;;;;;;5091345;28;21066;-67
2021/08/26 03:03:46;;;;;;;17.67;14.33;;;12.80;99.90;;;;;;5092381;28;20443;-67
2021/08/26 03:06:13;;;;;;;15.83;13.63;;;12.90;99.90;;;;;;5091739;28;21118;-67
2021/08/26 03:08:40;;;;;;;16.90;14.77;;;13.00;99.90;;;;;;5092449;28;20559;-67
2021/08/26 03:11:10;;;;;;;18.37;13.50;;;13.00;99.90;;;;;;5090977;28;20462;-67
2021/08/26 03:13:37;;;;;;;16.73;14.63;;;13.10;99.90;;;;;;5092241;28;20454;-66
2021/08/26 03:16:05;;;;;;;15.70;12.67;;;13.10;99.90;;;;;;5092015;28;20533;-67
2021/08/26 03:18:32;;;;;;;16.37;12.80;;;13.10;99.90;;;;;;5092333;28;20557;-66
2021/08/26 03:20:58;;;;;;;15.27;12.70;;;13.20;99.90;;;;;;5091131;28;20488;-66
2021/08/26 03:23:26;;;;;;;14.00;12.50;;;13.20;99.90;;;;;;5092014;28;20452;-67
2021/08/26 03:25:53;;;;;;;15.50;11.63;;;13.20;99.90;;;;;;5091123;28;20461;-66
2021/08/26 03:28:21;;;;;;;15.13;12.03;;;13.20;99.90;;;;;;5091595;28;20442;-67
2021/08/26 03:30:48;;;;;;;15.10;11.30;;;13.20;99.90;;;;;;5090915;28;20454;-67
2021/08/26 03:33:15;;;;;;;13.03;11.63;;;13.30;99.90;;;;;;5091571;28;20493;-67
2021/08/26 03:35:42;;;;;;;14.53;13.03;;;13.30;99.90;;;;;;5091196;28;20533;-69
2021/08/26 03:38:09;;;;;;;14.80;12.90;;;13.30;99.90;;;;;;5091389;28;20442;-66
2021/08/26 03:40:36;;;;;;;17.13;12.40;;;13.30;99.90;;;;;;5090606;28;20488;-67
2021/08/26 03:43:03;;;;;;;15.00;12.10;;;13.20;99.90;;;;;;5091370;28;20472;-67
2021/08/26 03:45:31;;;;;;;17.53;13.00;;;13.20;99.90;;;;;;5091224;28;20453;-66
2021/08/26 03:47:58;;;;;;;13.97;12.40;;;13.10;99.90;;;;;;5091242;28;20453;-68
2021/08/26 03:50:26;;;;;;;13.33;11.93;;;13.10;99.90;;;;;;5090290;28;20532;-67
2021/08/26 03:52:53;;;;;;;16.43;12.80;;;13.10;99.90;;;;;;5090826;28;20474;-68
2021/08/26 03:55:19;;;;;;;15.50;12.60;;;13.10;99.90;;;;;;5091082;28;20528;-67
2021/08/26 03:57:46;;;;;;;13.93;11.53;;;13.20;99.90;;;;;;5091084;28;20452;-67
2021/08/26 04:00:14;;;;;;;15.67;11.60;;;13.10;99.90;;;;;;5090285;28;20485;-67
2021/08/26 04:02:42;;;;;;;16.87;12.10;;;13.10;99.90;;;;;;5091204;28;20466;-67
2021/08/26 04:05:10;;;;;;;12.47;10.40;;;13.20;99.90;;;;;;5090356;28;20482;-67
2021/08/26 04:07:37;;;;;;;15.00;11.10;;;13.20;99.90;;;;;;5091069;28;20525;-67
2021/08/26 04:10:04;;;;;;;14.37;11.37;;;13.20;99.90;;;;;;5090413;28;20460;-67
2021/08/26 04:12:31;;;;;;;14.73;11.60;;;13.30;99.90;;;;;;5090990;28;20466;-67
2021/08/26 04:14:58;;;;;;;14.23;10.93;;;13.30;99.90;;;;;;5090090;28;21031;-67
2021/08/26 04:17:25;;;;;;;12.23;9.90;;;13.40;99.90;;;;;;5090979;28;20454;-66
2021/08/26 04:19:53;;;;;;;12.80;11.23;;;13.50;99.90;;;;;;5089716;28;20856;-67
2021/08/26 04:22:20;;;;;;;11.90;10.50;;;13.50;99.90;;;;;;5091165;28;20480;-67
2021/08/26 04:24:47;;;;;;;13.47;10.23;;;13.50;99.90;;;;;;5090778;28;20529;-67
2021/08/26 04:27:14;;;;;;;14.10;10.97;;;13.60;99.90;;;;;;5091267;28;20438;-67
2021/08/26 04:29:40;;;;;;;11.53;9.83;;;13.70;99.90;;;;;;5089769;28;20830;-67
2021/08/26 04:32:07;;;;;;;12.90;10.27;;;13.70;99.90;;;;;;5090701;28;20476;-66
2021/08/26 04:34:34;;;;;;;12.80;9.53;;;13.70;99.90;;;;;;5089778;28;20450;-67
2021/08/26 04:37:03;;;;;;;12.50;9.80;;;13.70;99.90;;;;;;5090763;28;20447;-66
2021/08/26 04:39:30;;;;;;;14.80;10.60;;;13.70;99.90;;;;;;5089818;28;20884;-66
2021/08/26 04:41:56;;;;;;;12.63;9.97;;;13.70;99.90;;;;;;5090276;28;20482;-68
2021/08/26 04:44:23;;;;;;;10.90;9.70;;;13.70;99.90;;;;;;5089954;28;20450;-66
2021/08/26 04:46:50;;;;;;;13.30;9.27;;;13.80;99.90;;;;;;5090480;28;20476;-67
2021/08/26 04:49:17;;;;;;;12.87;9.87;;;13.80;99.90;;;;;;5089210;28;20954;-67
2021/08/26 04:51:44;;;;;;;12.20;10.00;;;13.90;99.90;;;;;;5090171;28;20472;-67
2021/08/26 04:54:12;;;;;;;10.70;9.10;;;14.00;99.90;;;;;;5090054;28;21032;-67
2021/08/26 04:56:39;;;;;;;13.67;10.00;;;14.00;99.90;;;;;;5090325;28;20447;-67
2021/08/26 04:59:06;;;;;;;11.67;10.40;;;14.10;99.90;;;;;;5089699;28;20536;-66
2021/08/26 05:01:33;;;;;;;10.60;9.20;;;14.20;99.90;;;;;;5090213;28;20564;-67
2021/08/26 05:04:00;;;;;;;11.70;10.50;;;14.20;99.90;;;;;;5089829;28;20932;-67
2021/08/26 05:06:27;;;;;;;14.23;10.40;;;14.20;99.90;;;;;;5089908;28;20457;-67
2021/08/26 05:08:54;;;;;;;11.03;9.10;;;14.30;99.90;;;;;;5089646;28;20988;-67
2021/08/26 05:11:22;;;;;;;11.77;10.40;;;14.30;99.90;;;;;;5089475;28;20462;-67
2021/08/26 05:13:49;;;;;;;14.03;10.00;;;14.40;99.90;;;;;;5089792;28;20920;-67
2021/08/26 05:16:16;;;;;;;12.67;10.33;;;14.40;99.90;;;;;;5088912;28;20467;-67
2021/08/26 05:18:43;;;;;;;11.67;9.90;;;14.30;99.90;;;;;;5092870;28;20481;-67
2021/08/26 05:21:10;;;;;;;10.23;8.40;;;14.40;99.90;;;;;;5093486;28;20481;-67
2021/08/26 05:23:37;;;;;;;12.93;9.03;;;14.50;99.90;;;;;;5094210;28;21079;-67
2021/08/26 05:26:04;;;;;;;11.67;9.40;;;14.50;99.90;;;;;;5093588;28;20991;-66
2021/08/26 05:28:32;;;;;;;11.87;8.60;;;14.50;99.90;;;;;;5094058;28;20503;-67
2021/08/26 05:30:59;;;;;;;12.20;10.10;;;14.60;99.90;;;;;;5093127;28;20446;-66
2021/08/26 05:33:26;;;;;;;13.37;8.93;;;14.70;99.90;;;;;;5094215;28;20492;-66
2021/08/26 05:35:53;;;;;;;10.30;8.60;;;14.70;99.90;;;;;;5093443;28;20456;-67
2021/08/26 05:38:20;;;;;;;11.73;9.47;;;14.80;99.90;;;;;;5093761;28;20805;-67
2021/08/26 05:40:47;;;;;;;12.60;10.33;;;14.90;99.90;;;;;;5092662;28;20488;-67
2021/08/26 05:43:13;;;;;;;12.23;8.50;;;14.90;99.90;;;;;;5093445;28;20437;-67
2021/08/26 05:45:42;;;;;;;11.53;9.60;;;14.90;99.90;;;;;;5092825;28;20450;-67
2021/08/26 05:48:09;;;;;;;13.37;9.03;;;14.90;99.90;;;;;;5093367;28;20937;-67
2021/08/26 05:50:35;;;;;;;12.00;9.80;;;15.00;99.90;;;;;;5092686;28;20448;-67
2021/08/26 05:53:02;;;;;;;12.57;9.77;;;15.10;99.90;;;;;;5093292;28;20832;-67
2021/08/26 05:55:29;;;;;;;11.20;9.17;;;15.20;99.90;;;;;;5093298;28;20457;-67
2021/08/26 05:57:56;;;;;;;11.43;9.20;;;15.30;99.90;;;;;;5093722;28;20446;-67
2021/08/26 06:00:23;;;;;;;11.90;9.50;;;15.40;99.90;;;;;;5092922;28;20486;-67
2021/08/26 06:02:51;;;;;;;9.87;8.57;;;15.40;99.90;;;;;;5093177;28;20458;-66
2021/08/26 06:05:19;;;;;;;12.30;9.50;;;15.50;99.90;;;;;;5093123;28;20448;-67
2021/08/26 06:07:47;;;;;;;12.73;9.50;;;15.50;99.90;;;;;;5093198;28;20431;-67
2021/08/26 06:10:14;;;;;;;10.50;9.07;;;15.50;99.90;;;;;;5092413;28;20442;-67
2021/08/26 06:12:42;;;;;;;13.40;9.70;;;15.50;99.90;;;;;;5093044;28;20476;-66
2021/08/26 06:15:10;;;;;;;10.77;9.50;;;15.50;99.90;;;;;;5092623;28;20456;-67
2021/08/26 06:17:38;;;;;;;10.47;9.37;;;15.60;99.90;;;;;;5092971;28;20549;-67
2021/08/26 06:20:08;;;;;;;17.43;11.03;;;15.60;99.90;;;;;;5092007;28;20540;-66
2021/08/26 06:22:36;;;;;;;14.20;10.80;;;15.60;99.90;;;;;;5092429;28;20454;-67
2021/08/26 06:25:03;;;;;;;12.50;9.93;;;15.60;99.90;;;;;;5092169;28;20468;-66
2021/08/26 06:27:30;;;;;;;11.60;9.93;;;15.70;99.90;;;;;;5092941;28;20537;-67
2021/08/26 06:29:57;;;;;;;12.73;10.70;;;15.70;99.90;;;;;;5091700;28;20442;-66
2021/08/26 06:32:24;;;;;;;10.50;9.40;;;15.70;99.90;;;;;;5093002;28;20451;-66
2021/08/26 06:34:51;;;;;;;15.20;10.93;;;15.70;99.90;;;;;;5093230;28;20456;-65
2021/08/26 06:37:19;;;;;;;11.20;10.00;;;15.60;99.90;;;;;;5092887;28;20438;-67
2021/08/26 06:39:46;;;;;;;14.77;12.53;;;15.70;99.90;;;;;;5091805;28;20513;-66
2021/08/26 06:42:13;;;;;;;13.33;11.90;;;15.70;99.90;;;;;;5092458;28;20950;-65
2021/08/26 06:44:40;;;;;;;15.13;13.53;;;15.80;99.90;;;;;;5092372;28;20990;-66
2021/08/26 06:47:06;;;;;;;14.70;12.57;;;15.80;99.90;;;;;;5092095;28;20448;-65
2021/08/26 06:49:33;;;;;;;14.00;12.43;;;15.90;99.90;;;;;;5091779;28;20497;-65
2021/08/26 06:52:00;;;;;;;14.37;12.87;;;15.80;99.90;;;;;;5092287;28;20992;-65
2021/08/26 06:54:28;;;;;;;14.20;12.70;;;15.80;99.90;;;;;;5092018;28;20446;-65
2021/08/26 06:56:56;;;;;;;13.40;12.00;;;15.80;99.90;;;;;;5092312;28;20503;-66
2021/08/26 06:59:23;;;;;;;14.00;12.50;;;15.80;99.90;;;;;;5091173;28;20955;-66
2021/08/26 07:01:50;;;;;;;13.77;11.70;;;15.80;99.90;;;;;;5091815;28;20938;-66
2021/08/26 07:04:16;;;;;;;15.17;13.53;;;15.80;99.90;;;;;;5091607;28;20456;-67
2021/08/26 07:06:43;;;;;;;13.73;12.33;;;15.70;99.90;;;;;;5091799;28;20521;-66
2021/08/26 07:09:10;;;;;;;15.47;13.60;;;15.70;99.90;;;;;;5091474;28;21030;-66
2021/08/26 07:11:38;;;;;;;17.90;15.27;;;15.70;99.90;;;;;;5092078;28;20830;-68
2021/08/26 07:14:05;;;;;;;16.93;14.40;;;15.70;99.90;;;;;;5091661;28;20450;-67
2021/08/26 07:16:32;;;;;;;15.13;13.53;;;15.60;99.90;;;;;;5091474;28;20442;-67
2021/08/26 07:18:59;;;;;;;16.00;13.53;;;15.50;99.90;;;;;;5090781;28;20552;-71
2021/08/26 07:21:26;;;;;;;17.03;13.67;;;15.50;99.90;;;;;;5091122;28;20578;-70
2021/08/26 07:23:53;;;;;;;17.13;14.57;;;15.50;99.90;;;;;;5091675;28;20548;-67
2021/08/26 07:26:20;;;;;;;16.07;14.23;;;15.50;99.90;;;;;;5091718;28;20525;-67
2021/08/26 07:28:48;;;;;;;15.63;13.90;;;15.50;99.90;;;;;;5091489;28;20438;-67
2021/08/26 07:31:15;;;;;;;16.10;13.37;;;15.60;99.90;;;;;;5090670;28;20565;-67
2021/08/26 07:33:42;;;;;;;17.80;14.33;;;15.70;99.90;;;;;;5091294;28;20529;-66
2021/08/26 07:36:09;;;;;;;17.40;15.07;;;15.80;99.90;;;;;;5090423;28;20454;-67
2021/08/26 07:38:35;;;;;;;16.37;14.47;;;15.90;99.90;;;;;;5091128;28;20452;-67
2021/08/26 07:41:02;;;;;;;15.60;14.00;;;16.00;99.90;;;;;;5089386;28;20482;-67
2021/08/26 07:43:33;;;;;;;15.20;13.60;;;16.10;99.90;;;;;;5091182;28;20524;-66
2021/08/26 07:46:01;;;;;;;14.03;12.63;;;16.20;99.90;;;;;;5090733;28;20474;-67
2021/08/26 07:48:28;;;;;;;14.87;12.40;;;16.30;99.90;;;;;;5091206;28;20452;-67
2021/08/26 07:50:57;;;;;;;16.87;13.03;;;16.20;99.90;;;;;;5089887;28;21159;-67
2021/08/26 07:53:24;;;;;;;13.70;12.13;;;16.10;99.90;;;;;;5091040;28;20792;-67
2021/08/26 07:55:51;;;;;;;14.90;13.30;;;16.00;99.90;;;;;;5090095;28;20512;-67
2021/08/26 07:58:17;;;;;;;15.67;14.10;;;16.00;99.90;;;;;;5090408;28;20478;-67
2021/08/26 08:00:44;;;;;;;15.40;13.77;;;16.00;99.90;;;;;;5089659;28;20983;-67
2021/08/26 08:03:12;;;;;;;17.27;14.07;;;15.70;99.90;;;;;;5090767;28;20492;-67
2021/08/26 08:05:39;;;;;;;17.33;14.53;;;15.30;99.90;;;;;;5090474;28;20454;-68
2021/08/26 08:08:06;;;;;;;18.60;16.10;;;15.00;99.90;;;;;;5090606;28;20541;-66
2021/08/26 08:10:33;;;;;;;22.23;16.87;;;14.80;99.90;;;;;;5089714;28;20450;-65
2021/08/26 08:13:00;;;;;;;19.00;16.67;;;14.70;99.90;;;;;;5088935;28;20466;-66
2021/08/26 08:15:27;;;;;;;17.63;15.83;;;14.60;99.90;;;;;;5089945;28;20528;-66
2021/08/26 08:17:54;;;;;;;19.80;17.77;;;14.60;99.90;;;;;;5090574;28;20456;-66
2021/08/26 08:20:22;;;;;;;19.07;17.10;;;14.60;99.90;;;;;;5089586;28;20450;-66
2021/08/26 08:22:49;;;;;;;24.63;17.00;;;14.70;99.90;;;;;;5090230;28;20492;-66
2021/08/26 08:25:17;;;;;;;19.23;16.53;;;14.70;99.90;;;;;;5089515;28;20465;-66
2021/08/26 08:27:43;;;;;;;18.23;16.33;;;14.70;99.90;;;;;;5090369;28;20488;-67
2021/08/26 08:30:11;;;;;;;20.47;17.10;;;14.70;99.90;;;;;;5089689;28;20517;-67
2021/08/26 08:32:37;;;;;;;21.07;18.33;;;14.60;99.90;;;;;;5090456;28;20897;-66
2021/08/26 08:35:05;;;;;;;21.63;19.40;;;14.60;99.90;;;;;;5089912;28;20530;-66
2021/08/26 08:37:33;;;;;;;22.03;19.63;;;14.60;99.90;;;;;;5090303;28;20442;-67
2021/08/26 08:40:00;;;;;;;21.17;18.67;;;14.70;99.90;;;;;;5090614;27;20546;-67
2021/08/26 08:42:31;;;;;;;20.00;17.87;;;14.80;99.90;;;;;;5091822;27;20481;-67
2021/08/26 08:44:58;;;;;;;22.70;20.30;;;14.80;99.90;;;;;;5105599;27;20456;-66
2021/08/26 08:47:29;;;;;;;21.07;18.87;;;14.90;99.90;;;;;;5116215;27;20441;-67
2021/08/26 08:49:57;;;;;;;20.23;17.80;;;15.00;99.90;;;;;;5108150;27;20440;-68
2021/08/26 08:52:24;;;;;;;18.93;17.03;;;15.20;99.90;;;;;;5118426;27;20543;-68
2021/08/26 08:54:53;;;;;;;20.80;17.80;;;15.40;99.90;;;;;;5097356;27;20452;-68
2021/08/26 08:57:20;;;;;;;19.87;17.87;;;15.40;99.90;;;;;;5097898;28;20448;-67
2021/08/26 08:59:47;;;;;;;19.57;17.50;;;15.40;99.90;;;;;;5095071;28;20883;-67
2021/08/26 09:02:14;;;;;;;19.53;17.50;;;15.40;99.90;;;;;;5100682;27;20477;-67
2021/08/26 09:04:58;;;;;;;21.33;19.13;;;15.40;99.90;;;;;;5102938;27;20452;-68
2021/08/26 09:07:29;;;;;;;21.13;18.90;;;15.50;99.90;;;;;;5096128;28;20445;-67
2021/08/26 09:09:59;;;;;;;20.37;18.37;;;15.50;99.90;;;;;;5097516;28;20555;-68
2021/08/26 09:12:50;;;;;;;22.43;20.13;;;15.50;99.90;;;;;;5100616;28;20496;-68
2021/08/26 09:15:19;;;;;;;22.13;18.77;;;15.50;99.90;;;;;;5105230;28;20449;-67
2021/08/26 09:17:47;;;;;;;22.37;20.13;;;15.50;99.90;;;;;;5108524;28;20476;-66
2021/08/26 09:20:16;;;;;;;21.27;19.13;;;15.40;99.90;;;;;;5104530;28;21079;-68
2021/08/26 09:22:43;;;;;;;22.83;20.13;;;15.30;99.90;;;;;;5099468;28;20490;-68
2021/08/26 09:25:14;;;;;;;23.03;20.87;;;15.10;99.90;;;;;;5104313;27;20451;-69
2021/08/26 09:27:42;;;;;;;26.30;23.70;;;15.00;99.90;;;;;;5106065;28;20446;-68
2021/08/26 09:30:12;;;;;;;25.10;22.40;;;15.00;99.90;;;;;;5102419;28;20557;-68
2021/08/26 09:32:42;;;;;;;26.07;21.00;;;15.00;99.90;;;;;;5098412;27;20472;-68
2021/08/26 09:35:18;;;;;;;23.30;20.83;;;15.20;99.90;;;;;;5107547;28;20538;-67
2021/08/26 09:37:49;;;;;;;23.90;21.37;;;15.10;99.90;;;;;;5118241;28;20545;-67
2021/08/26 09:40:20;;;;;;;24.83;21.27;;;15.10;99.90;;;;;;5117079;27;20524;-68
2021/08/26 09:42:57;;;;;;;21.73;19.67;;;15.10;99.90;;;;;;5117846;28;20568;-67
2021/08/26 09:45:25;;;;;;;19.63;17.70;;;15.20;99.90;;;;;;5100907;28;20448;-68
2021/08/26 09:48:04;;;;;;;20.00;18.07;;;15.30;99.90;;;;;;5113827;28;20447;-68
2021/08/26 09:50:44;;;;;;;19.67;17.87;;;15.30;99.90;;;;;;5113615;28;20469;-68
2021/08/26 09:53:12;;;;;;;18.57;16.77;;;15.20;99.90;;;;;;5114242;28;20453;-67
2021/08/26 09:56:01;;;;;;;18.60;16.67;;;15.10;99.90;;;;;;5109567;28;20442;-67
2021/08/26 09:58:31;;;;;;;19.30;17.37;;;15.00;99.90;;;;;;5108544;28;20456;-67
2021/08/26 10:01:13;;;;;;;19.37;17.37;;;15.00;99.90;;;;;;5108988;28;20453;-67
2021/08/26 10:03:41;;;;;;;18.07;16.27;;;14.90;99.90;;;;;;5096245;27;20488;-67
2021/08/26 10:06:09;;;;;;;16.00;14.40;;;15.00;99.90;;;;;;5095592;27;20476;-68
2021/08/26 10:08:37;;;;;;;15.20;13.80;;;15.00;99.90;;;;;;5113756;27;20913;-68
2021/08/26 10:11:09;;;;;;;14.47;13.10;;;15.00;99.90;;;;;;5118553;27;20440;-68
2021/08/26 10:13:36;;;;;;;13.37;12.17;;;15.00;99.90;;;;;;5110065;27;20520;-68
2021/08/26 10:16:03;;;;;;;13.57;12.27;;;15.00;99.90;;;;;;5115450;27;20445;-65
2021/08/26 10:18:31;;;;;;;11.93;10.83;;;15.00;99.90;;;;;;5118622;27;20843;-68
2021/08/26 10:20:58;;;;;;;10.97;10.00;;;14.90;99.90;;;;;;5093473;28;20546;-68
2021/08/26 10:23:26;;;;;;;12.73;10.77;;;14.90;99.90;;;;;;5094611;27;20482;-68
2021/08/26 10:25:57;;;;;;;10.47;9.47;;;14.90;99.90;;;;;;5114409;27;20526;-68
2021/08/26 10:28:26;;;;;;;9.33;8.43;;;14.90;99.90;;;;;;5113163;27;20534;-68
2021/08/26 10:30:53;;;;;;;10.53;9.43;;;14.90;99.90;;;;;;5103628;27;20544;-68
2021/08/26 10:33:24;;;;;;;10.23;9.23;;;14.90;99.90;;;;;;5119001;27;20460;-68
2021/08/26 10:36:08;;;;;;;9.47;8.67;;;15.10;99.90;;;;;;5106498;27;20538;-68
2021/08/26 10:38:37;;;;;;;9.47;8.67;;;15.30;99.90;;;;;;5112522;27;20879;-68
2021/08/26 10:41:26;;;;;;;10.10;9.20;;;15.40;99.90;;;;;;5117292;27;20446;-68
2021/08/26 10:43:58;;;;;;;9.73;8.70;;;15.40;99.90;;;;;;5118933;27;20499;-66
2021/08/26 10:46:48;;;;;;;9.60;8.70;;;15.40;99.90;;;;;;5105730;27;20449;-67
2021/08/26 10:49:15;;;;;;;8.67;7.83;;;15.40;99.90;;;;;;5109901;27;20531;-68
2021/08/26 10:51:43;;;;;;;9.73;8.60;;;15.60;99.90;;;;;;5108777;27;21147;-67
2021/08/26 10:54:30;;;;;;;9.40;8.50;;;15.80;99.90;;;;;;5115451;27;20444;-67
2021/08/26 10:56:59;;;;;;;10.17;9.17;;;15.80;99.90;;;;;;5096889;27;21058;-66
2021/08/26 10:59:32;;;;;;;10.10;9.10;;;15.90;99.90;;;;;;5104914;27;20458;-68
2021/08/26 11:02:00;;;;;;;10.50;9.53;;;16.10;99.90;;;;;;5100157;27;20481;-75
2021/08/26 11:04:33;;;;;;;10.53;9.53;;;16.30;99.90;;;;;;5101594;27;20453;-68
2021/08/26 11:07:00;;;;;;;9.40;8.50;;;16.50;99.90;;;;;;5097707;27;20800;-69
2021/08/26 11:09:38;;;;;;;9.27;8.27;;;16.80;99.90;;;;;;5093577;27;20454;-67
2021/08/26 11:12:27;;;;;;;9.60;8.60;;;17.00;99.90;;;;;;5121598;27;20459;-66
2021/08/26 11:14:58;;;;;;;9.03;8.13;;;17.20;99.90;;;;;;5122122;27;20441;-67
2021/08/26 11:17:34;;;;;;;9.87;8.00;;;17.50;99.90;;;;;;5111090;28;20776;-67
2021/08/26 11:20:28;;;;;;;8.80;7.00;;;17.60;99.90;;;;;;5113256;27;20471;-66
2021/08/26 11:23:07;;;;;;;10.53;9.30;;;17.70;99.90;;;;;;5117588;27;20481;-67
2021/08/26 11:25:34;;;;;;;9.83;8.10;;;17.50;99.90;;;;;;5097971;27;20442;-67
2021/08/26 11:28:30;;;;;;;10.97;8.60;;;17.40;99.90;;;;;;5107382;27;20437;-66
2021/08/26 11:31:29;;;;;;;15.27;9.07;;;17.40;99.90;;;;;;5113995;27;20435;-66
2021/08/26 11:33:55;;;;;;;8.47;7.40;;;17.40;99.90;;;;;;5035480;28;20433;-68
2021/08/26 11:36:22;;;;;;;10.20;8.77;;;17.50;99.90;;;;;;5082555;27;20471;-68
2021/08/26 11:38:54;;;;;;;9.60;8.60;;;17.50;99.90;;;;;;5101165;27;20949;-68
2021/08/26 11:41:22;;;;;;;9.13;8.23;;;17.60;99.90;;;;;;5105909;27;20477;-68
2021/08/26 11:43:49;;;;;;;10.63;9.10;;;17.70;99.90;;;;;;5113513;27;20544;-68
2021/08/26 11:46:17;;;;;;;10.50;8.03;;;17.80;99.90;;;;;;5111412;27;20465;-69
2021/08/26 11:48:51;;;;;;;9.60;8.20;;;17.70;99.90;;;;;;5103199;27;20454;-67
2021/08/26 11:51:23;;;;;;;9.20;8.30;;;17.90;99.90;;;;;;5116338;27;21018;-69
2021/08/26 11:53:50;;;;;;;9.80;7.87;;;18.00;99.90;;;;;;5119181;27;20528;-68
2021/08/26 11:56:17;;;;;;;10.10;8.47;;;18.40;99.90;;;;;;5117667;27;20518;-68
2021/08/26 11:58:44;;;;;;;9.80;7.80;;;18.80;99.90;;;;;;5109283;27;20445;-68
2021/08/26 12:01:20;;;;;;;10.27;8.67;;;19.00;99.90;;;;;;5115611;27;20844;-67
2021/08/26 12:03:54;;;;;;;9.80;8.23;;;19.20;99.90;;;;;;5100129;27;20473;-68
2021/08/26 12:06:22;;;;;;;8.47;7.07;;;19.40;99.90;;;;;;5099324;27;20860;-67
2021/08/26 12:08:49;;;;;;;7.57;6.70;;;19.80;99.90;;;;;;5097339;27;20460;-68
2021/08/26 12:11:25;;;;;;;8.47;6.90;;;20.70;99.90;;;;;;5102506;27;20989;-67
2021/08/26 12:14:05;;;;;;;7.73;6.93;;;20.70;99.90;;;;;;5096818;27;20444;-68
2021/08/26 12:16:32;;;;;;;7.77;5.53;;;20.80;99.90;;;;;;5102723;27;20994;-68
2021/08/26 12:19:00;;;;;;;11.87;8.93;;;21.40;99.90;;;;;;5107619;27;20550;-68
2021/08/26 12:21:27;;;;;;;8.67;7.50;;;21.10;99.90;;;;;;5118336;27;20547;-68
2021/08/26 12:23:54;;;;;;;8.37;7.00;;;20.50;99.90;;;;;;5119203;27;20974;-67
2021/08/26 12:26:22;;;;;;;9.10;7.90;;;20.00;99.90;;;;;;5108822;28;20439;-69
2021/08/26 12:28:51;;;;;;;10.63;7.67;;;19.60;99.90;;;;;;5091326;28;20446;-70
2021/08/26 12:31:19;;;;;;;8.90;6.80;;;19.30;99.90;;;;;;5096563;28;20564;-70
2021/08/26 12:34:09;;;;;;;10.03;7.73;;;19.00;99.90;;;;;;5109628;28;20444;-69
2021/08/26 12:36:38;;;;;;;13.17;7.90;;;18.80;99.90;;;;;;5101160;28;20449;-67
2021/08/26 12:39:19;;;;;;;11.33;8.23;;;18.70;99.90;;;;;;5107348;28;20817;-70
2021/08/26 12:41:46;;;;;;;11.90;8.80;;;18.90;99.90;;;;;;5108481;28;20469;-70